Time;durP1;ratioP1;P1;durP2;ratioP2;P2;SDS_P1;SDS_P2;PMS_P1;PMS_P2;Temp;Humidity;BMP_temperature;BMP_pressure;BME280_temperature;BME280_humidity;BME280_pressure;Samples;Min_cycle;Max_cycle;Signal;HPM_P1;HPM_P2
2022/02/12 00:01:24;;;;;;;;;50.00;35.50;;;;;;;;6123225;23;51020;-59
2022/02/12 00:04:12;;;;;;;;;47.25;36.25;;;;;;;;6124510;23;51023;-57
2022/02/12 00:06:56;;;;;;;;;49.50;37.75;;;;;;;;6123857;23;51408;-59
2022/02/12 00:09:40;;;;;;;;;42.00;33.00;;;;;;;;6121470;23;51142;-58
2022/02/12 00:12:25;;;;;;;;;48.50;34.75;;;;;;;;6122704;23;51155;-59
2022/02/12 00:15:10;;;;;;;;;44.00;36.00;;;;;;;;6123996;23;50965;-58
2022/02/12 00:17:57;;;;;;;;;47.00;35.50;;;;;;;;6122949;23;50985;-58
2022/02/12 00:20:45;;;;;;;;;40.75;31.75;;;;;;;;6123543;23;51071;-58
2022/02/12 00:23:30;;;;;;;;;46.00;33.00;;;;;;;;6123903;23;51710;-58
2022/02/12 00:26:16;;;;;;;;;48.50;35.75;;;;;;;;6123592;23;51023;-58
2022/02/12 00:29:01;;;;;;;;;48.75;36.00;;;;;;;;6123531;23;51106;-59
2022/02/12 00:31:57;;;;;;;;;46.50;35.50;;;;;;;;6124746;23;51071;-58
2022/02/12 00:34:46;;;;;;;;;46.75;35.00;;;;;;;;6124143;23;51023;-58
2022/02/12 00:37:31;;;;;;;;;49.00;37.50;;;;;;;;6124037;23;51050;-58
2022/02/12 00:40:16;;;;;;;;;47.50;35.25;;;;;;;;6123176;22;51146;-59
2022/02/12 00:43:01;;;;;;;;;44.50;34.50;;;;;;;;6123347;23;51505;-58
2022/02/12 00:45:48;;;;;;;;;47.75;34.75;;;;;;;;6124296;23;51037;-58
2022/02/12 00:48:45;;;;;;;;;40.00;33.25;;;;;;;;6124268;23;51421;-58
2022/02/12 00:51:34;;;;;;;;;46.75;33.25;;;;;;;;6123942;23;51024;-58
2022/02/12 00:54:25;;;;;;;;;53.50;38.00;;;;;;;;6124093;23;51063;-59
2022/02/12 00:57:21;;;;;;;;;43.25;34.75;;;;;;;;6123599;23;51120;-58
2022/02/12 01:00:07;;;;;;;;;46.00;35.50;;;;;;;;6123796;23;51130;-59
2022/02/12 01:02:51;;;;;;;;;43.50;33.25;;;;;;;;6124416;23;51036;-58
2022/02/12 01:05:36;;;;;;;;;46.25;35.25;;;;;;;;6123908;23;51011;-58
2022/02/12 01:08:30;;;;;;;;;47.75;35.25;;;;;;;;6122834;23;51356;-59
2022/02/12 01:11:15;;;;;;;;;47.75;33.75;;;;;;;;6123733;23;51599;-59
2022/02/12 01:14:00;;;;;;;;;49.25;32.50;;;;;;;;6124404;23;50975;-59
2022/02/12 01:16:44;;;;;;;;;44.50;33.50;;;;;;;;6123252;23;51041;-59
2022/02/12 01:19:30;;;;;;;;;47.00;35.25;;;;;;;;6124066;23;51020;-58
2022/02/12 01:22:14;;;;;;;;;45.75;34.50;;;;;;;;6122422;23;51915;-57
2022/02/12 01:24:58;;;;;;;;;48.25;35.75;;;;;;;;6123077;23;51122;-59
2022/02/12 01:27:58;;;;;;;;;43.25;32.25;;;;;;;;6123387;23;51049;-58
2022/02/12 01:30:43;;;;;;;;;44.00;35.25;;;;;;;;6123135;23;50999;-59
2022/02/12 01:33:27;;;;;;;;;48.50;36.25;;;;;;;;6123011;23;51327;-59
2022/02/12 01:36:11;;;;;;;;;45.25;34.50;;;;;;;;6122955;23;51086;-59
2022/02/12 01:38:57;;;;;;;;;47.75;34.50;;;;;;;;6123652;22;50999;-60
2022/02/12 01:41:41;;;;;;;;;44.50;33.00;;;;;;;;6123671;23;51083;-59
2022/02/12 01:44:30;;;;;;;;;47.00;33.75;;;;;;;;6123259;23;51076;-58
2022/02/12 01:47:15;;;;;;;;;50.50;34.75;;;;;;;;6123629;23;51068;-58
2022/02/12 01:50:00;;;;;;;;;47.50;34.50;;;;;;;;6122989;23;51634;-58
2022/02/12 01:52:44;;;;;;;;;46.75;33.25;;;;;;;;6123162;23;51450;-58
2022/02/12 01:55:29;;;;;;;;;47.25;35.00;;;;;;;;6124107;23;51012;-58
2022/02/12 01:58:14;;;;;;;;;34.25;31.00;;;;;;;;6123306;23;51368;-57
2022/02/12 02:00:58;;;;;;;;;44.00;34.00;;;;;;;;6123687;23;51032;-58
2022/02/12 02:03:44;;;;;;;;;46.25;34.25;;;;;;;;6122542;23;51124;-58
2022/02/12 02:06:28;;;;;;;;;49.00;33.25;;;;;;;;6122855;23;51018;-57
2022/02/12 02:09:15;;;;;;;;;42.00;34.50;;;;;;;;6123487;23;51111;-58
2022/02/12 02:12:00;;;;;;;;;51.00;33.25;;;;;;;;6123377;23;51372;-59
2022/02/12 02:14:46;;;;;;;;;45.75;34.75;;;;;;;;6123186;23;51820;-59
2022/02/12 02:17:31;;;;;;;;;49.25;37.25;;;;;;;;6123039;23;51020;-58
2022/02/12 02:20:15;;;;;;;;;46.00;35.00;;;;;;;;6122361;23;51136;-57
2022/02/12 02:23:00;;;;;;;;;46.00;35.75;;;;;;;;6123059;23;51418;-59
2022/02/12 02:25:45;;;;;;;;;46.75;35.00;;;;;;;;6123192;23;51078;-58
2022/02/12 02:28:30;;;;;;;;;47.50;35.50;;;;;;;;6123395;23;51569;-59
2022/02/12 02:31:14;;;;;;;;;46.75;33.00;;;;;;;;6122482;23;51090;-59
2022/02/12 02:34:10;;;;;;;;;51.00;34.25;;;;;;;;6123347;23;51097;-57
2022/02/12 02:36:55;;;;;;;;;48.50;34.25;;;;;;;;6124472;23;51285;-58
2022/02/12 02:39:41;;;;;;;;;51.00;37.25;;;;;;;;6125453;22;51637;-58
2022/02/12 02:42:27;;;;;;;;;46.75;33.25;;;;;;;;6124253;23;51150;-58
2022/02/12 02:45:13;;;;;;;;;49.50;35.25;;;;;;;;6125436;23;51003;-60
2022/02/12 02:47:59;;;;;;;;;47.50;34.25;;;;;;;;6124038;23;51150;-60
2022/02/12 02:57:06;;;;;;;;;46.75;35.00;;;;;;;;6124426;23;51035;-59
2022/02/12 02:59:50;;;;;;;;;41.00;32.50;;;;;;;;6123923;23;51108;-59
2022/02/12 03:02:38;;;;;;;;;47.00;35.75;;;;;;;;6124322;23;51122;-59
2022/02/12 03:05:25;;;;;;;;;48.75;35.00;;;;;;;;6124718;23;51632;-57
2022/02/12 03:08:09;;;;;;;;;50.00;35.75;;;;;;;;6124244;23;51052;-59
2022/02/12 03:10:57;;;;;;;;;44.00;33.75;;;;;;;;6125383;23;51059;-58
2022/02/12 03:13:56;;;;;;;;;42.75;33.50;;;;;;;;6124284;23;51409;-59
2022/02/12 03:16:42;;;;;;;;;45.00;33.75;;;;;;;;6124972;23;50968;-58
2022/02/12 03:19:27;;;;;;;;;49.00;34.25;;;;;;;;6125317;23;51086;-58
2022/02/12 03:22:33;;;;;;;;;46.75;36.00;;;;;;;;6123780;23;51062;-58
2022/02/12 03:25:17;;;;;;;;;50.25;38.25;;;;;;;;6125360;23;50980;-58
2022/02/12 03:28:04;;;;;;;;;40.75;33.00;;;;;;;;6124162;23;51055;-58
2022/02/12 03:30:48;;;;;;;;;43.75;35.00;;;;;;;;6125007;23;50999;-58
2022/02/12 03:33:33;;;;;;;;;50.50;39.50;;;;;;;;6123926;23;51055;-58
2022/02/12 03:36:21;;;;;;;;;50.00;35.00;;;;;;;;6123585;23;50986;-58
2022/02/12 03:39:06;;;;;;;;;49.25;36.75;;;;;;;;6137888;22;51016;-58
2022/02/12 03:41:53;;;;;;;;;47.50;36.00;;;;;;;;6124773;23;51139;-58
2022/02/12 03:44:43;;;;;;;;;47.50;36.75;;;;;;;;6124606;23;50986;-58
2022/02/12 03:47:27;;;;;;;;;49.00;36.00;;;;;;;;6124563;23;50960;-59
2022/02/12 03:50:12;;;;;;;;;46.00;35.25;;;;;;;;6124447;23;51027;-60
2022/02/12 03:52:57;;;;;;;;;47.50;33.50;;;;;;;;6124014;23;51323;-59
2022/02/12 03:55:41;;;;;;;;;44.25;33.50;;;;;;;;6124498;23;51505;-59
2022/02/12 03:58:26;;;;;;;;;43.00;34.00;;;;;;;;6124051;23;51097;-58
2022/02/12 04:01:11;;;;;;;;;39.00;32.00;;;;;;;;6124941;23;51090;-59
2022/02/12 04:03:56;;;;;;;;;49.25;35.75;;;;;;;;6124059;23;51044;-58
2022/02/12 04:06:40;;;;;;;;;47.25;36.25;;;;;;;;6124034;23;51039;-57
2022/02/12 04:09:26;;;;;;;;;43.75;35.00;;;;;;;;6124109;23;51495;-58
2022/02/12 04:12:10;;;;;;;;;46.00;35.75;;;;;;;;6125100;23;51445;-59
2022/02/12 04:14:56;;;;;;;;;48.25;35.00;;;;;;;;6123659;23;51063;-59
2022/02/12 04:17:42;;;;;;;;;42.75;35.25;;;;;;;;6123713;23;50949;-57
2022/02/12 04:20:27;;;;;;;;;49.00;34.00;;;;;;;;6123997;23;51564;-58
2022/02/12 04:23:12;;;;;;;;;46.00;34.50;;;;;;;;6123969;23;50964;-58
2022/02/12 04:26:01;;;;;;;;;42.50;35.00;;;;;;;;6124078;23;51052;-59
2022/02/12 04:28:49;;;;;;;;;49.25;36.75;;;;;;;;6124141;23;50964;-58
2022/02/12 04:31:33;;;;;;;;;47.00;36.75;;;;;;;;6120201;23;51067;-59
2022/02/12 04:34:19;;;;;;;;;47.75;33.50;;;;;;;;6122975;23;51076;-58
2022/02/12 04:37:05;;;;;;;;;49.50;37.75;;;;;;;;6122699;23;51092;-58
2022/02/12 04:39:50;;;;;;;;;47.75;34.50;;;;;;;;6136402;22;50970;-58
2022/02/12 04:42:34;;;;;;;;;47.25;36.00;;;;;;;;6122892;23;51075;-57
2022/02/12 04:45:23;;;;;;;;;47.25;32.75;;;;;;;;6123754;23;50918;-57
2022/02/12 04:48:07;;;;;;;;;48.25;36.50;;;;;;;;6123687;23;51102;-58
2022/02/12 04:50:53;;;;;;;;;43.75;35.25;;;;;;;;6124091;23;51083;-58
2022/02/12 04:53:38;;;;;;;;;46.25;32.50;;;;;;;;6123481;23;51065;-58
2022/02/12 04:56:22;;;;;;;;;51.50;37.00;;;;;;;;6123602;23;51009;-58
2022/02/12 04:59:06;;;;;;;;;48.25;34.25;;;;;;;;6123166;23;51191;-59
2022/02/12 05:02:03;;;;;;;;;49.25;35.75;;;;;;;;6124362;23;51029;-58
2022/02/12 05:04:50;;;;;;;;;49.00;35.50;;;;;;;;6124158;23;50980;-58
2022/02/12 05:07:35;;;;;;;;;51.50;35.25;;;;;;;;6123491;23;51000;-59
2022/02/12 05:10:22;;;;;;;;;46.50;34.00;;;;;;;;6124553;23;51598;-58
2022/02/12 05:13:11;;;;;;;;;46.75;35.75;;;;;;;;6123434;23;51015;-58
2022/02/12 05:15:56;;;;;;;;;49.00;36.50;;;;;;;;6123877;23;50961;-58
2022/02/12 05:18:42;;;;;;;;;47.25;34.00;;;;;;;;6123950;23;50991;-58
2022/02/12 05:21:26;;;;;;;;;45.25;35.50;;;;;;;;6124359;23;50948;-58
2022/02/12 05:24:10;;;;;;;;;49.50;36.25;;;;;;;;6124229;23;51471;-59
2022/02/12 05:26:56;;;;;;;;;44.25;33.50;;;;;;;;6123896;23;51146;-58
2022/02/12 05:29:41;;;;;;;;;48.75;35.50;;;;;;;;6124209;23;51046;-59
2022/02/12 05:32:26;;;;;;;;;44.00;35.75;;;;;;;;6122769;23;51021;-58
2022/02/12 05:35:12;;;;;;;;;51.50;39.00;;;;;;;;6123403;23;51608;-57
2022/02/12 05:37:59;;;;;;;;;54.75;42.50;;;;;;;;6123245;23;51019;-58
2022/02/12 05:40:49;;;;;;;;;55.50;42.75;;;;;;;;6149095;22;51141;-59
2022/02/12 05:43:36;;;;;;;;;56.25;45.00;;;;;;;;6122254;23;51455;-58
2022/02/12 05:46:20;;;;;;;;;59.50;44.25;;;;;;;;6123683;23;51099;-58
2022/02/12 05:49:07;;;;;;;;;58.25;44.00;;;;;;;;6123005;23;51619;-58
2022/02/12 05:51:53;;;;;;;;;55.00;43.00;;;;;;;;6099823;23;50991;-58
2022/02/12 05:54:40;;;;;;;;;53.00;39.50;;;;;;;;6124353;23;51052;-58
2022/02/12 05:57:25;;;;;;;;;53.00;38.50;;;;;;;;6123272;23;51067;-58
2022/02/12 06:00:10;;;;;;;;;57.50;42.75;;;;;;;;6123580;23;51606;-58
2022/02/12 06:03:02;;;;;;;;;53.25;39.75;;;;;;;;6122619;23;51131;-58
2022/02/12 06:05:50;;;;;;;;;52.25;36.00;;;;;;;;6123262;23;51098;-58
2022/02/12 06:08:35;;;;;;;;;56.00;42.25;;;;;;;;6122873;23;51013;-58
2022/02/12 06:11:20;;;;;;;;;51.50;40.50;;;;;;;;6124561;23;50986;-59
2022/02/12 06:14:10;;;;;;;;;55.75;40.00;;;;;;;;6124108;23;51558;-59
2022/02/12 06:16:57;;;;;;;;;46.50;37.75;;;;;;;;6124752;23;51145;-59
2022/02/12 06:19:43;;;;;;;;;53.00;38.75;;;;;;;;6124944;23;51028;-58
2022/02/12 06:22:30;;;;;;;;;51.00;39.25;;;;;;;;6123177;23;51050;-58
2022/02/12 06:25:16;;;;;;;;;59.75;43.00;;;;;;;;6124464;23;50992;-59
2022/02/12 06:28:09;;;;;;;;;57.00;43.25;;;;;;;;6125130;23;51354;-60
2022/02/12 06:30:54;;;;;;;;;55.00;43.00;;;;;;;;6124788;23;51047;-57
2022/02/12 06:33:42;;;;;;;;;55.00;43.25;;;;;;;;6124118;23;51046;-57
2022/02/12 06:36:36;;;;;;;;;54.00;43.25;;;;;;;;6124204;23;51118;-59
2022/02/12 06:39:25;;;;;;;;;62.00;45.00;;;;;;;;6124820;22;51422;-58
2022/02/12 06:42:10;;;;;;;;;58.00;43.50;;;;;;;;6123217;23;51076;-58
2022/02/12 06:44:55;;;;;;;;;61.25;45.00;;;;;;;;6124018;23;51047;-59
2022/02/12 06:47:40;;;;;;;;;64.00;47.75;;;;;;;;6125147;23;51195;-58
2022/02/12 06:50:24;;;;;;;;;60.00;46.75;;;;;;;;6124350;23;51106;-59
2022/02/12 06:53:09;;;;;;;;;55.75;45.00;;;;;;;;6124441;23;51153;-59
2022/02/12 06:55:55;;;;;;;;;62.00;45.00;;;;;;;;6124340;23;51068;-59
2022/02/12 06:58:51;;;;;;;;;62.50;46.00;;;;;;;;6124332;23;51860;-58
2022/02/12 07:01:56;;;;;;;;;59.00;43.75;;;;;;;;6123450;23;51178;-58
2022/02/12 07:04:41;;;;;;;;;57.75;42.25;;;;;;;;6124772;23;51603;-59
2022/02/12 07:07:28;;;;;;;;;64.75;45.75;;;;;;;;6124136;23;51109;-59
2022/02/12 07:10:17;;;;;;;;;62.75;46.50;;;;;;;;6124897;23;50996;-59
2022/02/12 07:13:20;;;;;;;;;61.25;46.00;;;;;;;;6124072;23;51016;-59
2022/02/12 07:16:06;;;;;;;;;63.25;47.25;;;;;;;;6123820;23;51547;-59
2022/02/12 07:18:50;;;;;;;;;66.00;48.75;;;;;;;;6124384;23;51369;-58
2022/02/12 07:21:42;;;;;;;;;68.00;47.25;;;;;;;;6124129;23;51042;-58
2022/02/12 07:24:28;;;;;;;;;62.25;46.00;;;;;;;;6124759;23;51476;-58
2022/02/12 07:27:14;;;;;;;;;63.50;47.25;;;;;;;;6124426;23;51115;-58
2022/02/12 07:30:10;;;;;;;;;68.50;50.50;;;;;;;;6123743;23;51670;-59
2022/02/12 07:32:56;;;;;;;;;63.00;49.75;;;;;;;;6122787;23;51109;-59
2022/02/12 07:35:40;;;;;;;;;66.25;49.50;;;;;;;;6123670;23;51024;-59
2022/02/12 07:38:34;;;;;;;;;67.75;49.25;;;;;;;;6124219;23;51049;-59
2022/02/12 07:41:20;;;;;;;;;74.50;59.75;;;;;;;;6123176;22;51018;-49
2022/02/12 07:44:05;;;;;;;;;70.00;53.25;;;;;;;;6124120;23;51318;-49
2022/02/12 07:46:50;;;;;;;;;72.50;53.25;;;;;;;;6124109;23;50999;-51
2022/02/12 07:49:41;;;;;;;;;72.00;55.25;;;;;;;;6123947;23;51005;-50
2022/02/12 07:52:25;;;;;;;;;73.25;52.25;;;;;;;;6123939;23;51085;-51
2022/02/12 07:55:11;;;;;;;;;62.50;49.00;;;;;;;;6123855;23;51028;-50
2022/02/12 07:58:02;;;;;;;;;62.00;47.50;;;;;;;;6123839;23;51043;-52
2022/02/12 08:00:47;;;;;;;;;65.75;50.00;;;;;;;;6124157;23;51092;-50
2022/02/12 08:03:42;;;;;;;;;60.00;46.75;;;;;;;;6123917;23;51001;-53
2022/02/12 08:09:32;;;;;;;;;49.25;38.75;;;;;;;;6124183;23;50952;-50
2022/02/12 08:12:19;;;;;;;;;48.50;36.25;;;;;;;;6124175;23;51089;-52
2022/02/12 08:15:04;;;;;;;;;47.75;36.50;;;;;;;;6123942;23;50944;-50
2022/02/12 08:17:48;;;;;;;;;45.00;37.00;;;;;;;;6124092;23;50990;-53
2022/02/12 08:20:33;;;;;;;;;47.50;35.75;;;;;;;;6123728;23;51490;-54
2022/02/12 08:23:18;;;;;;;;;43.25;32.75;;;;;;;;6123464;23;51050;-51
2022/02/12 08:26:06;;;;;;;;;45.25;37.50;;;;;;;;6124920;23;50953;-53
2022/02/12 08:29:00;;;;;;;;;47.50;37.75;;;;;;;;6124081;23;51060;-53
2022/02/12 08:31:44;;;;;;;;;54.75;36.50;;;;;;;;6123691;23;51595;-54
2022/02/12 08:34:36;;;;;;;;;51.00;37.25;;;;;;;;6123033;23;51199;-52
2022/02/12 08:37:24;;;;;;;;;50.50;36.75;;;;;;;;6125206;23;51372;-53
2022/02/12 08:40:12;;;;;;;;;46.25;36.25;;;;;;;;6121542;22;51000;-53
2022/02/12 08:42:57;;;;;;;;;45.25;36.25;;;;;;;;6123202;23;51345;-52
2022/02/12 08:45:42;;;;;;;;;43.25;35.25;;;;;;;;6124173;23;51578;-51
2022/02/12 08:48:30;;;;;;;;;43.00;32.50;;;;;;;;6124439;23;51028;-51
2022/02/12 08:51:14;;;;;;;;;50.75;36.75;;;;;;;;6123757;23;51391;-53
2022/02/12 08:53:59;;;;;;;;;39.00;32.00;;;;;;;;6122985;23;51002;-53
2022/02/12 08:56:44;;;;;;;;;66.75;50.25;;;;;;;;6124268;23;51056;-52
2022/02/12 08:59:29;;;;;;;;;65.75;46.75;;;;;;;;6124574;23;51040;-49
2022/02/12 09:02:19;;;;;;;;;53.00;41.50;;;;;;;;6123799;23;51096;-49
2022/02/12 09:05:04;;;;;;;;;49.50;41.75;;;;;;;;6123386;23;51120;-53
2022/02/12 09:07:48;;;;;;;;;44.75;35.00;;;;;;;;6124245;23;51050;-61
2022/02/12 09:10:32;;;;;;;;;48.75;38.00;;;;;;;;6123833;23;51050;-59
2022/02/12 09:13:17;;;;;;;;;45.25;33.00;;;;;;;;6124069;23;50992;-41
2022/02/12 09:16:03;;;;;;;;;43.50;33.25;;;;;;;;6123324;23;51470;-41
2022/02/12 09:18:48;;;;;;;;;42.00;33.00;;;;;;;;6123185;23;51030;-41
2022/02/12 09:21:39;;;;;;;;;45.75;35.75;;;;;;;;6123242;23;50992;-42
2022/02/12 09:24:23;;;;;;;;;30.50;24.50;;;;;;;;6122313;23;51063;-40
2022/02/12 09:27:07;;;;;;;;;15.00;10.00;;;;;;;;6124102;23;51072;-40
2022/02/12 09:29:54;;;;;;;;;24.00;16.50;;;;;;;;6123219;23;51462;-40
2022/02/12 09:32:41;;;;;;;;;43.75;35.00;;;;;;;;6123012;23;51545;-41
2022/02/12 09:35:25;;;;;;;;;26.50;22.25;;;;;;;;6123629;23;51592;-41
2022/02/12 09:38:12;;;;;;;;;41.75;30.50;;;;;;;;6116109;23;51477;-42
2022/02/12 09:40:57;;;;;;;;;45.75;37.00;;;;;;;;6122360;22;51310;-40
2022/02/12 09:43:43;;;;;;;;;38.75;33.50;;;;;;;;6121890;23;51082;-41
2022/02/12 09:46:30;;;;;;;;;44.75;34.00;;;;;;;;6124127;23;51078;-42
2022/02/12 09:49:15;;;;;;;;;32.75;28.50;;;;;;;;6123483;23;51387;-42
2022/02/12 09:52:00;;;;;;;;;31.75;30.00;;;;;;;;6124325;23;51043;-40
2022/02/12 09:54:45;;;;;;;;;40.75;33.25;;;;;;;;6123988;23;50953;-41
2022/02/12 09:57:36;;;;;;;;;48.75;38.00;;;;;;;;6123478;23;51273;-41
2022/02/12 10:00:20;;;;;;;;;48.00;38.00;;;;;;;;6123451;23;51454;-42
2022/02/12 10:03:04;;;;;;;;;40.75;33.50;;;;;;;;6123340;23;51181;-40
2022/02/12 10:05:53;;;;;;;;;38.00;32.75;;;;;;;;6123927;23;51260;-40
2022/02/12 10:08:41;;;;;;;;;41.00;33.25;;;;;;;;6122099;23;51196;-42
2022/02/12 10:11:37;;;;;;;;;42.75;34.50;;;;;;;;6124477;23;51540;-40
2022/02/12 10:14:24;;;;;;;;;42.75;33.50;;;;;;;;6123782;23;51142;-40
2022/02/12 10:17:08;;;;;;;;;46.25;36.75;;;;;;;;6124460;23;51080;-41
2022/02/12 10:19:54;;;;;;;;;46.50;36.00;;;;;;;;6124133;23;51291;-41
2022/02/12 10:22:44;;;;;;;;;41.00;33.75;;;;;;;;6123091;23;51110;-41
2022/02/12 10:25:29;;;;;;;;;48.50;40.50;;;;;;;;6122653;23;51139;-42
2022/02/12 10:28:15;;;;;;;;;44.50;35.50;;;;;;;;6120355;23;50945;-41
2022/02/12 10:31:01;;;;;;;;;47.75;36.00;;;;;;;;6123918;23;51370;-41
2022/02/12 10:33:48;;;;;;;;;48.25;37.00;;;;;;;;6122810;23;50969;-41
2022/02/12 10:36:33;;;;;;;;;36.50;30.50;;;;;;;;6121603;23;51724;-40
2022/02/12 10:39:17;;;;;;;;;45.50;35.25;;;;;;;;6121475;23;51143;-41
2022/02/12 10:42:07;;;;;;;;;47.25;37.00;;;;;;;;6123684;23;51128;-41
2022/02/12 10:44:51;;;;;;;;;42.75;34.25;;;;;;;;6101191;23;51028;-41
2022/02/12 10:47:36;;;;;;;;;48.00;36.00;;;;;;;;6124097;23;51063;-42
2022/02/12 10:50:25;;;;;;;;;45.50;36.25;;;;;;;;6123849;23;51332;-42
2022/02/12 10:53:35;;;;;;;;;43.50;34.50;;;;;;;;6123143;23;51406;-40
2022/02/12 10:56:20;;;;;;;;;46.50;37.00;;;;;;;;6121652;23;51078;-41
2022/02/12 10:59:05;;;;;;;;;44.75;35.00;;;;;;;;6123917;23;51072;-42
2022/02/12 11:01:54;;;;;;;;;42.00;34.75;;;;;;;;6121612;23;51124;-42
2022/02/12 11:04:40;;;;;;;;;36.50;30.00;;;;;;;;6123350;23;51183;-40
2022/02/12 11:07:28;;;;;;;;;44.75;33.25;;;;;;;;6122236;23;51144;-41
2022/02/12 11:10:18;;;;;;;;;44.75;34.00;;;;;;;;6124080;23;51287;-41
2022/02/12 11:13:04;;;;;;;;;39.25;31.00;;;;;;;;6124379;23;51350;-42
2022/02/12 11:15:53;;;;;;;;;43.75;32.25;;;;;;;;6121718;23;51177;-39
2022/02/12 11:18:39;;;;;;;;;37.25;28.75;;;;;;;;6123915;23;52235;-40
2022/02/12 11:21:27;;;;;;;;;40.75;32.25;;;;;;;;6123758;23;51077;-41
2022/02/12 11:24:16;;;;;;;;;46.75;35.25;;;;;;;;6123281;23;51111;-40
2022/02/12 11:27:00;;;;;;;;;45.00;32.50;;;;;;;;6120429;23;51117;-40
2022/02/12 11:29:47;;;;;;;;;44.00;33.50;;;;;;;;6124031;23;51351;-41
2022/02/12 11:32:40;;;;;;;;;37.25;32.75;;;;;;;;6122964;23;50955;-40
2022/02/12 11:35:27;;;;;;;;;39.00;33.00;;;;;;;;6121386;23;51063;-41
2022/02/12 11:38:30;;;;;;;;;42.00;31.75;;;;;;;;6123124;23;51008;-41
2022/02/12 11:41:29;;;;;;;;;44.00;31.75;;;;;;;;6123474;22;51008;-40
2022/02/12 11:44:32;;;;;;;;;27.00;21.50;;;;;;;;6123191;23;51112;-41
2022/02/12 11:47:16;;;;;;;;;39.75;31.50;;;;;;;;6122802;23;51740;-40
2022/02/12 11:50:16;;;;;;;;;35.50;31.00;;;;;;;;6124067;23;51092;-40
2022/02/12 11:53:01;;;;;;;;;45.50;32.75;;;;;;;;6123327;23;51624;-41
2022/02/12 11:55:47;;;;;;;;;41.25;32.75;;;;;;;;6123652;23;51096;-40
2022/02/12 11:58:45;;;;;;;;;43.75;31.75;;;;;;;;6123821;23;51082;-40
2022/02/12 12:01:35;;;;;;;;;31.00;26.25;;;;;;;;6123189;23;51412;-40
2022/02/12 12:04:25;;;;;;;;;41.75;30.00;;;;;;;;6123621;23;51081;-39
2022/02/12 12:07:13;;;;;;;;;41.00;33.75;;;;;;;;6123264;23;51066;-40
2022/02/12 12:10:05;;;;;;;;;41.25;33.75;;;;;;;;6123505;23;51108;-40
2022/02/12 12:12:50;;;;;;;;;43.00;31.75;;;;;;;;6122508;23;51470;-40
2022/02/12 12:15:36;;;;;;;;;36.25;32.25;;;;;;;;6120763;23;51184;-40
2022/02/12 12:18:27;;;;;;;;;35.75;28.25;;;;;;;;6121480;23;51235;-41
2022/02/12 12:21:17;;;;;;;;;39.25;32.00;;;;;;;;6122856;23;51051;-40
2022/02/12 12:24:01;;;;;;;;;37.00;30.50;;;;;;;;6123060;23;51161;-39
2022/02/12 12:26:47;;;;;;;;;35.75;32.50;;;;;;;;6124251;23;51080;-41
2022/02/12 12:32:38;;;;;;;;;34.25;28.50;;;;;;;;6124115;23;51051;-40
2022/02/12 12:35:22;;;;;;;;;41.25;30.75;;;;;;;;6124482;23;51081;-41
2022/02/12 12:38:16;;;;;;;;;41.00;32.75;;;;;;;;6124104;23;51416;-40
2022/02/12 12:41:19;;;;;;;;;30.75;25.50;;;;;;;;6124070;22;51118;-40
2022/02/12 12:44:13;;;;;;;;;35.00;27.25;;;;;;;;6123719;23;51513;-40
2022/02/12 12:47:00;;;;;;;;;36.25;28.25;;;;;;;;6123921;23;51054;-40
2022/02/12 12:49:46;;;;;;;;;35.50;30.00;;;;;;;;6123944;23;51194;-41
2022/02/12 12:52:33;;;;;;;;;42.50;32.25;;;;;;;;6123482;23;51039;-41
2022/02/12 12:55:18;;;;;;;;;36.25;29.75;;;;;;;;6122495;23;51137;-40
2022/02/12 12:58:12;;;;;;;;;43.00;29.25;;;;;;;;6119354;23;51083;-39
2022/02/12 13:01:10;;;;;;;;;41.75;32.50;;;;;;;;6123805;23;51075;-40
2022/02/12 13:03:59;;;;;;;;;36.00;31.25;;;;;;;;6123158;23;51272;-40
2022/02/12 13:06:49;;;;;;;;;39.50;31.50;;;;;;;;6123558;23;51044;-40
2022/02/12 13:09:39;;;;;;;;;37.75;30.00;;;;;;;;6122998;23;51600;-39
2022/02/12 13:12:34;;;;;;;;;42.75;32.00;;;;;;;;6123153;23;51193;-41
2022/02/12 13:15:28;;;;;;;;;34.25;30.25;;;;;;;;6123236;23;51280;-39
2022/02/12 13:18:14;;;;;;;;;36.25;30.75;;;;;;;;6123746;23;51447;-39
2022/02/12 13:21:09;;;;;;;;;33.75;29.50;;;;;;;;6122827;23;51052;-40
2022/02/12 13:24:00;;;;;;;;;35.25;30.25;;;;;;;;6123589;23;51109;-40
2022/02/12 13:26:51;;;;;;;;;48.75;39.25;;;;;;;;6122896;23;51001;-40
2022/02/12 13:29:48;;;;;;;;;52.75;41.75;;;;;;;;6123347;23;51361;-40
2022/02/12 13:32:36;;;;;;;;;44.25;34.00;;;;;;;;6122691;23;51112;-39
2022/02/12 13:35:23;;;;;;;;;54.00;40.50;;;;;;;;6123048;23;51039;-39
2022/02/12 13:38:20;;;;;;;;;41.25;34.75;;;;;;;;6121236;23;51117;-39
2022/02/12 13:41:31;;;;;;;;;36.75;31.25;;;;;;;;6118940;23;52370;-40
2022/02/12 13:44:26;;;;;;;;;49.25;38.00;;;;;;;;6122525;23;51272;-40
2022/02/12 13:47:11;;;;;;;;;43.50;32.50;;;;;;;;6122201;23;51595;-39
2022/02/12 13:49:56;;;;;;;;;36.25;30.75;;;;;;;;6121651;23;51110;-39
2022/02/12 13:52:50;;;;;;;;;40.00;31.50;;;;;;;;6122573;23;51200;-40
2022/02/12 13:55:48;;;;;;;;;38.75;30.00;;;;;;;;6122535;23;51008;-41
2022/02/12 13:58:32;;;;;;;;;38.50;32.25;;;;;;;;6121566;23;51126;-41
2022/02/12 14:01:18;;;;;;;;;39.75;28.50;;;;;;;;6121930;23;51522;-40
2022/02/12 14:04:07;;;;;;;;;43.00;32.50;;;;;;;;6122485;23;51031;-41
2022/02/12 14:07:02;;;;;;;;;42.50;31.75;;;;;;;;6122691;23;51044;-40
2022/02/12 14:09:46;;;;;;;;;45.00;32.25;;;;;;;;6121934;23;51403;-41
2022/02/12 14:12:30;;;;;;;;;42.75;32.75;;;;;;;;6121933;23;51729;-41
2022/02/12 14:15:16;;;;;;;;;42.50;31.25;;;;;;;;6121669;23;51085;-40
2022/02/12 14:18:00;;;;;;;;;36.00;32.00;;;;;;;;6122751;23;50976;-41
2022/02/12 14:20:46;;;;;;;;;45.00;31.50;;;;;;;;6121416;23;51435;-39
2022/02/12 14:23:31;;;;;;;;;35.75;29.00;;;;;;;;6121727;23;50996;-41
2022/02/12 14:26:17;;;;;;;;;33.25;30.50;;;;;;;;6121687;23;51483;-40
2022/02/12 14:29:03;;;;;;;;;45.75;33.50;;;;;;;;6121385;23;51066;-40
2022/02/12 14:31:48;;;;;;;;;33.00;31.00;;;;;;;;6123377;23;51032;-40
2022/02/12 14:34:32;;;;;;;;;44.00;31.00;;;;;;;;6122467;23;51372;-40
2022/02/12 14:37:18;;;;;;;;;35.25;31.00;;;;;;;;6123466;23;51709;-40
2022/02/12 14:40:06;;;;;;;;;37.50;32.25;;;;;;;;6123050;22;51272;-41
2022/02/12 14:43:06;;;;;;;;;47.75;35.50;;;;;;;;6123490;23;51132;-41
2022/02/12 14:45:54;;;;;;;;;32.50;25.25;;;;;;;;6123177;23;51028;-41
2022/02/12 14:48:55;;;;;;;;;39.50;30.25;;;;;;;;6123158;23;51074;-40
2022/02/12 14:51:45;;;;;;;;;35.50;31.00;;;;;;;;6123517;23;51557;-40
2022/02/12 14:54:41;;;;;;;;;34.75;29.50;;;;;;;;6123420;23;51000;-40
2022/02/12 14:57:28;;;;;;;;;42.75;31.50;;;;;;;;6123884;23;51078;-40
2022/02/12 15:00:17;;;;;;;;;40.75;31.50;;;;;;;;6123712;23;51341;-39
2022/02/12 15:03:13;;;;;;;;;27.75;27.00;;;;;;;;6139700;22;51129;-40
2022/02/12 15:05:59;;;;;;;;;39.00;29.50;;;;;;;;6123253;23;51019;-40
2022/02/12 15:08:44;;;;;;;;;43.75;32.00;;;;;;;;6123732;23;51004;-42
2022/02/12 15:11:31;;;;;;;;;42.50;32.50;;;;;;;;6122836;23;51059;-41
2022/02/12 15:14:15;;;;;;;;;36.75;32.00;;;;;;;;6122325;23;51134;-41
2022/02/12 15:17:02;;;;;;;;;37.25;28.00;;;;;;;;6123697;23;51120;-39
2022/02/12 15:19:50;;;;;;;;;44.50;34.00;;;;;;;;6122991;23;51038;-41
2022/02/12 15:22:48;;;;;;;;;43.00;32.50;;;;;;;;6122660;23;51081;-41
2022/02/12 15:25:38;;;;;;;;;44.75;35.00;;;;;;;;6123525;23;51445;-40
2022/02/12 15:28:24;;;;;;;;;40.50;34.00;;;;;;;;6122726;23;51637;-39
2022/02/12 15:31:10;;;;;;;;;31.50;27.50;;;;;;;;6119166;23;51595;-40
2022/02/12 15:33:58;;;;;;;;;38.75;32.00;;;;;;;;6123440;23;51089;-41
2022/02/12 15:36:53;;;;;;;;;36.75;31.50;;;;;;;;6122026;23;51116;-39
2022/02/12 15:39:43;;;;;;;;;39.25;32.00;;;;;;;;6123576;22;51028;-41
2022/02/12 15:42:37;;;;;;;;;44.00;33.50;;;;;;;;6121882;23;51092;-41
2022/02/12 15:45:22;;;;;;;;;32.50;27.25;;;;;;;;6122412;23;51040;-40
2022/02/12 15:48:18;;;;;;;;;41.50;29.75;;;;;;;;6123550;23;51039;-41
2022/02/12 15:51:03;;;;;;;;;15.00;15.00;;;;;;;;6123388;23;51453;-41
2022/02/12 15:53:49;;;;;;;;;24.50;24.50;;;;;;;;6123598;23;51465;-40
2022/02/12 15:56:44;;;;;;;;;31.75;24.00;;;;;;;;6122808;23;51059;-40
2022/02/12 15:59:30;;;;;;;;;36.25;28.50;;;;;;;;6122827;23;51014;-40
2022/02/12 16:02:14;;;;;;;;;34.25;27.75;;;;;;;;6121710;23;50970;-40
2022/02/12 16:05:00;;;;;;;;;24.25;22.25;;;;;;;;6122358;23;50999;-41
2022/02/12 16:07:45;;;;;;;;;24.00;23.50;;;;;;;;6123189;23;51581;-41
2022/02/12 16:10:32;;;;;;;;;31.25;24.00;;;;;;;;6120469;23;50936;-41
2022/02/12 16:13:18;;;;;;;;;32.75;26.50;;;;;;;;6123855;23;51019;-39
2022/02/12 16:16:04;;;;;;;;;29.75;23.00;;;;;;;;6123662;23;50949;-41
2022/02/12 16:18:49;;;;;;;;;35.00;30.50;;;;;;;;6123045;23;51074;-40
2022/02/12 16:21:36;;;;;;;;;29.50;25.75;;;;;;;;6024853;23;56406;-41
2022/02/12 16:24:21;;;;;;;;;35.50;30.25;;;;;;;;6062002;23;51163;-41
2022/02/12 16:27:05;;;;;;;;;38.25;30.50;;;;;;;;6063142;23;51193;-41